Time;durP1;ratioP1;P1;durP2;ratioP2;P2;SDS_P1;SDS_P2;PMS_P1;PMS_P2;Temp;Humidity;BMP_temperature;BMP_pressure;BME280_temperature;BME280_humidity;BME280_pressure;Samples;Min_cycle;Max_cycle;Signal;HPM_P1;HPM_P2
2021/12/12 00:01:21;;;;;;;42.90;21.80;;;5.20;99.90;;;;;;5069984;28;20214;-78
2021/12/12 00:03:53;;;;;;;54.77;22.23;;;5.20;99.90;;;;;;5064741;28;20453;-79
2021/12/12 00:06:25;;;;;;;50.77;21.77;;;5.20;99.90;;;;;;5070960;28;20209;-77
2021/12/12 00:09:01;;;;;;;41.97;20.40;;;5.30;99.90;;;;;;5055290;28;20205;-78
2021/12/12 00:11:30;;;;;;;56.20;20.07;;;5.20;99.90;;;;;;5058248;28;20280;-78
2021/12/12 00:14:05;;;;;;;60.10;20.50;;;5.30;99.90;;;;;;5070015;28;20589;-78
2021/12/12 00:16:33;;;;;;;47.17;21.67;;;5.30;99.90;;;;;;5064283;28;20220;-79
2021/12/12 00:19:00;;;;;;;48.10;19.97;;;5.30;99.90;;;;;;5070921;28;20735;-79
2021/12/12 00:21:29;;;;;;;49.23;18.97;;;5.30;99.90;;;;;;5053254;28;20629;-79
2021/12/12 00:23:56;;;;;;;37.50;18.13;;;5.40;99.90;;;;;;5070417;28;20241;-76
2021/12/12 00:26:24;;;;;;;41.87;17.60;;;5.40;99.90;;;;;;5052941;28;20210;-77
2021/12/12 00:28:51;;;;;;;40.10;18.27;;;5.40;99.90;;;;;;5066185;28;20213;-77
2021/12/12 00:31:20;;;;;;;46.43;18.37;;;5.40;99.90;;;;;;5068200;28;20302;-78
2021/12/12 00:33:50;;;;;;;41.93;16.93;;;5.40;99.90;;;;;;5070277;28;20312;-78
2021/12/12 00:36:17;;;;;;;49.57;19.00;;;5.40;99.90;;;;;;5071044;28;20228;-78
2021/12/12 00:38:53;;;;;;;41.73;17.87;;;5.40;99.90;;;;;;5070907;28;20296;-77
2021/12/12 00:41:54;;;;;;;36.83;16.63;;;5.40;99.90;;;;;;5070865;28;20723;-79
2021/12/12 00:44:22;;;;;;;39.87;17.03;;;5.50;99.90;;;;;;5070375;28;20308;-78
2021/12/12 00:46:49;;;;;;;37.13;16.83;;;5.50;99.90;;;;;;5051277;28;20211;-79
2021/12/12 00:49:18;;;;;;;41.57;16.20;;;5.50;99.90;;;;;;5063617;28;20624;-79
2021/12/12 00:51:46;;;;;;;41.00;16.93;;;5.50;99.90;;;;;;5069582;28;20516;-78
2021/12/12 00:54:16;;;;;;;37.30;16.00;;;5.50;99.90;;;;;;5052341;28;20224;-79
2021/12/12 00:56:43;;;;;;;35.67;15.47;;;5.50;99.90;;;;;;5070000;28;20238;-78
2021/12/12 00:59:12;;;;;;;30.27;14.80;;;5.50;99.90;;;;;;5069799;28;20579;-78
2021/12/12 01:01:45;;;;;;;32.93;16.07;;;5.60;99.90;;;;;;5052096;28;20200;-79
2021/12/12 01:04:17;;;;;;;40.40;14.80;;;5.60;99.90;;;;;;5052192;28;20281;-78
2021/12/12 01:06:46;;;;;;;33.00;15.67;;;5.60;99.90;;;;;;5069619;28;20682;-78
2021/12/12 01:09:20;;;;;;;28.20;14.33;;;5.60;99.90;;;;;;5070099;28;20216;-78
2021/12/12 01:11:50;;;;;;;30.63;15.13;;;5.60;99.90;;;;;;5069569;28;20282;-79
2021/12/12 01:14:21;;;;;;;36.07;14.20;;;5.60;99.90;;;;;;5069406;28;20519;-78
2021/12/12 01:16:59;;;;;;;32.00;14.13;;;5.60;99.90;;;;;;5069291;28;20289;-77
2021/12/12 01:19:40;;;;;;;39.93;14.73;;;5.60;99.90;;;;;;5069678;28;20206;-78
2021/12/12 01:22:15;;;;;;;31.33;14.33;;;5.60;99.90;;;;;;5068627;28;20205;-78
2021/12/12 01:24:45;;;;;;;31.97;13.40;;;5.60;99.90;;;;;;5051461;28;20228;-78
2021/12/12 01:27:13;;;;;;;32.40;13.97;;;5.60;99.90;;;;;;5054098;28;20707;-77
2021/12/12 01:29:41;;;;;;;27.03;13.87;;;5.60;99.90;;;;;;5066686;28;20200;-77
2021/12/12 01:32:17;;;;;;;29.23;14.50;;;5.60;99.90;;;;;;5047353;28;20256;-79
2021/12/12 01:34:44;;;;;;;30.27;12.83;;;5.70;99.90;;;;;;5068848;28;20235;-77
2021/12/12 01:39:58;;;;;;;35.93;12.53;;;5.70;99.90;;;;;;5069890;28;20193;-78
2021/12/12 01:42:34;;;;;;;30.17;13.23;;;5.60;99.90;;;;;;5051565;28;20205;-79
2021/12/12 01:45:25;;;;;;;31.50;11.93;;;5.70;99.90;;;;;;5049457;28;20229;-80
2021/12/12 01:48:00;;;;;;;25.27;11.70;;;5.70;99.90;;;;;;5062599;28;20297;-79
2021/12/12 01:50:31;;;;;;;32.10;12.43;;;5.60;99.90;;;;;;5065575;28;20297;-79
2021/12/12 01:53:01;;;;;;;33.47;12.30;;;5.60;99.90;;;;;;5089299;28;20208;-78
2021/12/12 01:55:49;;;;;;;27.07;11.60;;;5.60;99.90;;;;;;5089664;28;20251;-78
2021/12/12 01:58:22;;;;;;;28.80;12.17;;;5.60;99.90;;;;;;5076089;28;20201;-77
2021/12/12 02:00:54;;;;;;;28.40;12.73;;;5.60;99.90;;;;;;5095501;28;20232;-78
2021/12/12 02:03:25;;;;;;;32.57;11.53;;;5.60;99.90;;;;;;5093452;28;20223;-77
2021/12/12 02:05:54;;;;;;;40.10;12.87;;;5.60;99.90;;;;;;5092147;28;20294;-76
2021/12/12 02:08:23;;;;;;;26.40;11.47;;;5.60;99.90;;;;;;5092213;28;20291;-79
2021/12/12 02:11:04;;;;;;;26.80;11.20;;;5.60;99.90;;;;;;5092049;28;20226;-77
2021/12/12 02:13:36;;;;;;;25.67;11.23;;;5.60;99.90;;;;;;5079735;28;20200;-78
2021/12/12 02:16:06;;;;;;;22.90;11.57;;;5.60;99.90;;;;;;5082832;28;20241;-76
2021/12/12 02:18:38;;;;;;;28.77;10.63;;;5.60;99.90;;;;;;5089599;28;20625;-77
2021/12/12 02:21:23;;;;;;;25.50;10.47;;;5.60;99.90;;;;;;5051052;28;20258;-77
2021/12/12 02:37:30;;;;;;;27.97;10.57;;;5.60;99.90;;;;;;5088437;28;20240;-77
2021/12/12 02:39:57;;;;;;;28.23;11.47;;;5.60;99.90;;;;;;5084435;28;20297;-78
2021/12/12 02:42:24;;;;;;;30.77;10.90;;;5.60;99.90;;;;;;5051121;28;20204;-77
2021/12/12 02:44:56;;;;;;;28.57;12.40;;;5.60;99.90;;;;;;5068621;28;20667;-77
2021/12/12 02:47:33;;;;;;;27.83;11.63;;;5.70;99.90;;;;;;5081426;28;20231;-77
2021/12/12 02:50:18;;;;;;;24.90;11.53;;;5.70;99.90;;;;;;5089375;28;20239;-78
2021/12/12 02:53:01;;;;;;;26.20;11.07;;;5.70;99.90;;;;;;5092502;28;20302;-78
2021/12/12 02:55:34;;;;;;;25.70;11.63;;;5.70;99.90;;;;;;5085810;28;20228;-76
2021/12/12 02:58:04;;;;;;;27.83;11.03;;;5.70;99.90;;;;;;5062083;28;20289;-77
2021/12/12 03:00:36;;;;;;;27.53;11.80;;;5.70;99.90;;;;;;5054444;28;20621;-77
2021/12/12 03:03:08;;;;;;;28.10;11.57;;;5.70;99.90;;;;;;5072058;28;20221;-77
2021/12/12 03:05:41;;;;;;;31.77;12.30;;;5.70;99.90;;;;;;5086874;28;20231;-78
2021/12/12 03:08:12;;;;;;;32.40;11.57;;;5.70;99.90;;;;;;5092701;28;20202;-78
2021/12/12 03:10:43;;;;;;;28.60;12.33;;;5.60;99.90;;;;;;5070147;28;20207;-78
2021/12/12 03:13:10;;;;;;;31.77;11.57;;;5.70;99.90;;;;;;5092155;28;20208;-77
2021/12/12 03:15:41;;;;;;;23.67;11.57;;;5.70;99.90;;;;;;5092242;28;20253;-79
2021/12/12 03:18:12;;;;;;;33.67;12.57;;;5.70;99.90;;;;;;5091849;28;20630;-77
2021/12/12 03:20:42;;;;;;;29.07;12.10;;;5.70;99.90;;;;;;5074303;28;20629;-78
2021/12/12 03:23:30;;;;;;;33.23;11.80;;;5.70;99.90;;;;;;5082754;28;20601;-77
2021/12/12 03:26:04;;;;;;;28.63;13.17;;;5.70;99.90;;;;;;5083971;28;20225;-78
2021/12/12 03:28:37;;;;;;;30.33;12.50;;;5.70;99.90;;;;;;5092173;28;20239;-77
2021/12/12 03:31:14;;;;;;;26.47;12.77;;;5.70;99.90;;;;;;5092095;28;20760;-78
2021/12/12 03:33:41;;;;;;;24.07;12.23;;;5.70;99.90;;;;;;5092565;28;20309;-77
2021/12/12 03:36:10;;;;;;;27.03;12.07;;;5.70;99.90;;;;;;5092131;28;20707;-78
2021/12/12 03:38:42;;;;;;;28.23;12.90;;;5.70;99.90;;;;;;5083409;28;20217;-78
2021/12/12 03:41:15;;;;;;;32.73;12.20;;;5.80;99.90;;;;;;5086924;28;20212;-78
2021/12/12 03:43:45;;;;;;;31.07;12.67;;;5.80;99.90;;;;;;5091663;28;20676;-77
2021/12/12 03:46:12;;;;;;;24.53;12.23;;;5.80;99.90;;;;;;5073727;28;20337;-77
2021/12/12 03:48:43;;;;;;;23.33;11.83;;;5.80;99.90;;;;;;5091061;28;20222;-78
2021/12/12 03:51:13;;;;;;;20.83;12.00;;;5.80;99.90;;;;;;5091865;28;20214;-78
2021/12/12 03:53:41;;;;;;;23.30;11.37;;;5.80;99.90;;;;;;5089953;28;20205;-77
2021/12/12 03:56:11;;;;;;;28.07;12.20;;;5.80;99.90;;;;;;5091478;28;20241;-76
2021/12/12 03:58:39;;;;;;;23.10;11.13;;;5.90;99.90;;;;;;5073873;28;20236;-78
2021/12/12 04:01:21;;;;;;;20.80;10.90;;;5.80;99.90;;;;;;5090610;28;20196;-78
2021/12/12 04:03:50;;;;;;;23.17;11.33;;;5.80;99.90;;;;;;5091386;28;20315;-77
2021/12/12 04:06:21;;;;;;;20.40;10.83;;;5.80;99.90;;;;;;5089932;28;20261;-78
2021/12/12 04:08:50;;;;;;;21.20;9.97;;;5.80;99.90;;;;;;5071137;28;20201;-77
2021/12/12 04:11:22;;;;;;;23.57;11.43;;;5.80;99.90;;;;;;5087522;28;20216;-78
2021/12/12 04:13:53;;;;;;;21.00;10.47;;;5.90;99.90;;;;;;5090767;28;20200;-78
2021/12/12 04:16:21;;;;;;;20.20;10.47;;;5.90;99.90;;;;;;5075835;28;20258;-77
2021/12/12 04:18:48;;;;;;;16.03;9.87;;;5.90;99.90;;;;;;5078232;28;20225;-78
2021/12/12 04:21:20;;;;;;;17.87;9.90;;;5.90;99.90;;;;;;5091293;28;20253;-77
2021/12/12 04:23:47;;;;;;;19.10;9.53;;;5.90;99.90;;;;;;5091017;28;20274;-77
2021/12/12 04:26:27;;;;;;;21.90;10.17;;;5.90;99.90;;;;;;5072293;28;20238;-77
2021/12/12 04:28:58;;;;;;;15.87;8.70;;;5.90;99.90;;;;;;5090806;28;20236;-77
2021/12/12 04:31:25;;;;;;;16.83;8.70;;;5.90;99.90;;;;;;5067997;28;20223;-76
2021/12/12 04:33:53;;;;;;;18.67;9.30;;;5.90;99.90;;;;;;5070612;28;20639;-77
2021/12/12 04:36:30;;;;;;;15.47;8.23;;;5.90;99.90;;;;;;5082235;28;20658;-78
2021/12/12 04:39:08;;;;;;;13.47;7.67;;;5.90;99.90;;;;;;5091169;28;20214;-78
2021/12/12 04:41:35;;;;;;;13.87;8.10;;;6.00;99.90;;;;;;5090489;28;20608;-78
2021/12/12 04:44:03;;;;;;;11.97;7.50;;;6.00;99.90;;;;;;5089815;28;20210;-78
2021/12/12 04:52:33;;;;;;;12.13;7.73;;;6.00;99.90;;;;;;5090161;28;20194;-79
2021/12/12 04:55:06;;;;;;;10.50;7.27;;;6.00;99.90;;;;;;5089745;28;20211;-76
2021/12/12 04:57:43;;;;;;;12.87;7.43;;;6.00;99.90;;;;;;5089998;28;20217;-78
2021/12/12 05:00:16;;;;;;;14.30;8.00;;;6.00;99.90;;;;;;5089454;28;20293;-77
2021/12/12 05:03:13;;;;;;;15.97;8.13;;;6.00;99.90;;;;;;5090308;28;20266;-77
2021/12/12 05:05:52;;;;;;;14.37;7.77;;;6.10;99.90;;;;;;5089749;28;20238;-78
2021/12/12 05:08:23;;;;;;;12.13;8.20;;;6.10;99.90;;;;;;5071681;28;20737;-77
2021/12/12 05:10:58;;;;;;;14.07;8.40;;;6.00;99.90;;;;;;5089921;28;20336;-77
2021/12/12 05:13:34;;;;;;;17.83;8.30;;;6.10;99.90;;;;;;5086912;28;20300;-76
2021/12/12 05:16:16;;;;;;;14.20;7.90;;;6.10;99.90;;;;;;5090689;28;20619;-77
2021/12/12 05:18:50;;;;;;;15.70;8.30;;;6.10;99.90;;;;;;5072395;28;20217;-78
2021/12/12 05:21:29;;;;;;;12.83;8.33;;;6.20;99.90;;;;;;5090207;28;20212;-77
2021/12/12 05:24:00;;;;;;;13.00;7.67;;;6.20;99.90;;;;;;5076003;28;20236;-76
2021/12/12 05:26:33;;;;;;;14.37;7.77;;;6.20;99.90;;;;;;5090435;28;20649;-77
2021/12/12 05:29:07;;;;;;;11.77;7.67;;;6.20;99.90;;;;;;5085011;28;20197;-77
2021/12/12 05:31:34;;;;;;;12.90;8.67;;;6.20;99.90;;;;;;5084403;28;20224;-77
2021/12/12 05:34:02;;;;;;;13.07;8.17;;;6.20;99.90;;;;;;5077988;28;20317;-77
2021/12/12 05:36:33;;;;;;;12.00;8.40;;;6.20;99.90;;;;;;5089349;28;20209;-77
2021/12/12 05:39:01;;;;;;;12.53;8.27;;;6.20;99.90;;;;;;5090038;28;20602;-76
2021/12/12 05:41:28;;;;;;;14.50;8.40;;;6.20;99.90;;;;;;5070928;28;20205;-78
2021/12/12 05:43:57;;;;;;;12.77;8.20;;;6.20;99.90;;;;;;5088031;28;20256;-76
2021/12/12 05:46:25;;;;;;;14.73;9.33;;;6.20;99.90;;;;;;5088988;28;20267;-77
2021/12/12 05:48:53;;;;;;;14.60;8.93;;;6.30;99.90;;;;;;5088679;28;20220;-77
2021/12/12 05:51:22;;;;;;;17.33;9.17;;;6.30;99.90;;;;;;5079643;28;20198;-78
2021/12/12 05:53:51;;;;;;;15.10;8.57;;;6.30;99.90;;;;;;5069485;28;20320;-77
2021/12/12 05:56:22;;;;;;;15.60;8.93;;;6.30;99.90;;;;;;5088847;28;20265;-78
2021/12/12 05:58:52;;;;;;;16.00;8.93;;;6.30;99.90;;;;;;5087373;28;20294;-76
2021/12/12 06:01:19;;;;;;;12.77;8.57;;;6.30;99.90;;;;;;5078378;28;20618;-75
2021/12/12 06:03:49;;;;;;;15.00;8.87;;;6.30;99.90;;;;;;5050525;28;20702;-77
2021/12/12 06:06:23;;;;;;;17.83;9.33;;;6.30;99.90;;;;;;5086510;28;20661;-77
2021/12/12 06:08:50;;;;;;;18.00;9.93;;;6.40;99.90;;;;;;5085581;28;20238;-78
2021/12/12 06:11:22;;;;;;;17.00;10.17;;;6.50;99.90;;;;;;5088980;28;20309;-76
2021/12/12 06:13:50;;;;;;;17.03;9.77;;;6.40;99.90;;;;;;5052963;28;20226;-77
2021/12/12 06:16:19;;;;;;;15.20;8.90;;;6.40;99.90;;;;;;5077592;28;20197;-77
2021/12/12 06:18:52;;;;;;;18.80;9.70;;;6.40;99.90;;;;;;5082520;28;20237;-77
2021/12/12 06:21:19;;;;;;;16.47;10.23;;;6.40;99.90;;;;;;5066165;28;20284;-77
2021/12/12 06:23:46;;;;;;;21.70;10.43;;;6.50;99.90;;;;;;5080170;28;20648;-78
2021/12/12 06:26:15;;;;;;;18.33;11.17;;;6.50;99.90;;;;;;5088333;28;20325;-77
2021/12/12 06:28:42;;;;;;;18.47;10.50;;;6.50;99.90;;;;;;5085839;28;20716;-78
2021/12/12 06:31:09;;;;;;;18.20;10.37;;;6.50;99.90;;;;;;5084611;28;20199;-77
2021/12/12 06:33:39;;;;;;;21.73;11.17;;;6.60;99.90;;;;;;5088498;28;20218;-77
2021/12/12 06:36:08;;;;;;;22.13;11.20;;;6.50;99.90;;;;;;5067062;28;20193;-77
2021/12/12 06:38:37;;;;;;;22.30;11.17;;;6.60;99.90;;;;;;5066869;28;20197;-76
2021/12/12 06:41:06;;;;;;;22.23;12.03;;;6.60;99.90;;;;;;5088231;28;20218;-80
2021/12/12 06:43:34;;;;;;;23.30;11.17;;;6.60;99.90;;;;;;5069297;28;20211;-77
2021/12/12 06:46:05;;;;;;;23.43;11.90;;;6.60;99.90;;;;;;5088411;28;20294;-77
2021/12/12 06:48:33;;;;;;;22.83;11.80;;;6.60;99.90;;;;;;5088382;28;20260;-76
2021/12/12 06:51:01;;;;;;;28.10;13.03;;;6.60;99.90;;;;;;5088187;28;20679;-76
2021/12/12 06:53:32;;;;;;;24.13;12.83;;;6.70;99.90;;;;;;5071812;28;20346;-78
2021/12/12 06:55:59;;;;;;;28.27;13.37;;;6.70;99.90;;;;;;5073654;28;20335;-76
2021/12/12 06:58:29;;;;;;;26.03;13.30;;;6.70;99.90;;;;;;5067449;28;20212;-77
2021/12/12 07:01:08;;;;;;;30.63;13.90;;;6.70;99.90;;;;;;5050670;28;20208;-77
2021/12/12 07:03:37;;;;;;;25.27;12.97;;;6.80;99.90;;;;;;5068781;28;20208;-76
2021/12/12 07:06:06;;;;;;;26.83;13.67;;;6.80;99.90;;;;;;5049263;28;20347;-78
2021/12/12 07:08:34;;;;;;;29.37;14.47;;;6.80;99.90;;;;;;5068358;28;20226;-78
2021/12/12 07:11:02;;;;;;;25.57;12.80;;;6.80;99.90;;;;;;5067205;28;20209;-77
2021/12/12 07:13:30;;;;;;;27.20;12.80;;;6.80;99.90;;;;;;5071634;28;20293;-77
2021/12/12 07:15:59;;;;;;;31.63;13.83;;;6.80;99.90;;;;;;5052117;28;20202;-78
2021/12/12 07:18:29;;;;;;;27.63;13.70;;;6.80;99.90;;;;;;5074087;28;20222;-76
2021/12/12 07:21:00;;;;;;;28.27;13.87;;;6.80;99.90;;;;;;5059794;28;20714;-76
2021/12/12 07:23:31;;;;;;;27.47;13.57;;;6.90;99.90;;;;;;5056320;28;20295;-76
2021/12/12 07:26:00;;;;;;;27.97;14.63;;;6.90;99.90;;;;;;5075632;28;20714;-77
2021/12/12 07:28:29;;;;;;;28.53;14.73;;;6.90;99.90;;;;;;5076469;28;20227;-76
2021/12/12 07:31:07;;;;;;;25.93;13.60;;;6.90;99.90;;;;;;5069881;28;20567;-75
2021/12/12 07:33:35;;;;;;;27.00;14.10;;;6.90;99.90;;;;;;5068132;28;20322;-76
2021/12/12 07:36:06;;;;;;;33.37;14.77;;;6.90;99.90;;;;;;5066832;28;20740;-75
2021/12/12 07:38:34;;;;;;;28.70;13.57;;;7.00;99.90;;;;;;5071102;28;20201;-77
2021/12/12 07:41:05;;;;;;;29.83;13.70;;;6.90;99.90;;;;;;5067472;28;20285;-76
2021/12/12 07:43:32;;;;;;;32.23;13.43;;;7.00;99.90;;;;;;5066998;28;20941;-75
2021/12/12 07:46:01;;;;;;;33.47;13.80;;;7.10;99.90;;;;;;5069687;28;20249;-77
2021/12/12 07:48:28;;;;;;;33.57;14.70;;;7.10;99.90;;;;;;5070590;28;20281;-76
2021/12/12 07:50:56;;;;;;;34.13;15.13;;;7.10;99.90;;;;;;5071609;28;20287;-77
2021/12/12 07:53:27;;;;;;;30.40;13.47;;;7.10;99.90;;;;;;5071902;28;20230;-76
2021/12/12 07:55:56;;;;;;;28.73;13.67;;;7.10;99.90;;;;;;5042710;28;21377;-77
2021/12/12 07:58:25;;;;;;;26.23;13.77;;;7.20;99.90;;;;;;5070523;28;20258;-76
2021/12/12 08:00:54;;;;;;;34.10;14.03;;;7.10;99.90;;;;;;5071761;28;20240;-77
2021/12/12 08:03:26;;;;;;;31.40;14.77;;;7.20;99.90;;;;;;5070751;28;20547;-77
2021/12/12 08:05:54;;;;;;;31.97;14.77;;;7.20;99.90;;;;;;5071047;28;20282;-77
2021/12/12 08:08:24;;;;;;;34.73;14.03;;;7.20;99.90;;;;;;5071431;28;20470;-77
2021/12/12 08:10:52;;;;;;;33.57;14.77;;;7.20;99.90;;;;;;5071034;28;20212;-77
2021/12/12 08:13:19;;;;;;;33.83;15.03;;;7.30;99.90;;;;;;5069305;28;20200;-77
2021/12/12 08:15:46;;;;;;;31.37;14.47;;;7.30;99.90;;;;;;5051489;28;20216;-77
2021/12/12 08:18:16;;;;;;;32.00;14.83;;;7.40;99.90;;;;;;5068354;28;20252;-77
2021/12/12 08:20:46;;;;;;;34.53;14.60;;;7.40;99.90;;;;;;5070543;28;20254;-77
2021/12/12 08:23:13;;;;;;;36.13;14.97;;;;;;;;;;5070952;28;20236;-77
2021/12/12 08:25:42;;;;;;;38.67;16.10;;;7.40;99.90;;;;;;5038418;28;20319;-77
2021/12/12 08:28:09;;;;;;;40.43;15.60;;;7.40;99.90;;;;;;5064447;28;20204;-77
2021/12/12 08:30:37;;;;;;;35.33;15.70;;;7.50;99.90;;;;;;5065660;28;20699;-77
2021/12/12 08:33:06;;;;;;;42.90;17.30;;;7.50;99.90;;;;;;5052177;28;20228;-76
2021/12/12 08:35:34;;;;;;;45.93;17.57;;;7.50;99.90;;;;;;5070210;28;20204;-77
2021/12/12 08:38:03;;;;;;;42.27;17.57;;;7.50;99.90;;;;;;5070663;28;20285;-77
2021/12/12 08:40:34;;;;;;;50.70;18.87;;;7.60;99.90;;;;;;5070020;28;20656;-78
2021/12/12 08:43:08;;;;;;;54.70;20.03;;;7.50;99.90;;;;;;5069140;28;20231;-77
2021/12/12 08:45:39;;;;;;;60.43;20.73;;;7.60;99.90;;;;;;5068328;28;20315;-76
2021/12/12 08:48:07;;;;;;;65.87;21.10;;;7.60;99.90;;;;;;5067856;28;20262;-78
2021/12/12 08:50:37;;;;;;;60.33;21.03;;;7.60;99.90;;;;;;5070154;28;20220;-77
2021/12/12 08:53:08;;;;;;;72.17;21.97;;;7.70;99.90;;;;;;5069082;28;20238;-77
2021/12/12 08:55:39;;;;;;;65.60;21.83;;;7.70;99.90;;;;;;5068953;28;20335;-78
2021/12/12 08:58:15;;;;;;;67.27;22.10;;;7.70;99.90;;;;;;5072990;28;20297;-77
2021/12/12 09:01:06;;;;;;;60.50;20.83;;;7.70;99.90;;;;;;5069219;28;20243;-77
2021/12/12 09:03:53;;;;;;;68.03;21.70;;;7.80;99.90;;;;;;5048336;28;20708;-77
2021/12/12 09:06:37;;;;;;;64.97;21.13;;;7.80;99.90;;;;;;5065547;28;20717;-77
2021/12/12 09:09:12;;;;;;;61.13;20.37;;;7.90;99.90;;;;;;5067024;28;20197;-76
2021/12/12 09:12:05;;;;;;;67.67;21.73;;;7.90;99.90;;;;;;5067616;28;20242;-78
2021/12/12 09:15:04;;;;;;;71.07;21.83;;;7.90;99.90;;;;;;5069034;28;20243;-77
2021/12/12 09:17:41;;;;;;;62.77;20.00;;;8.00;99.90;;;;;;5069878;28;20496;-76
2021/12/12 09:20:32;;;;;;;64.27;21.37;;;8.00;99.90;;;;;;5069113;28;20244;-77
2021/12/12 09:23:08;;;;;;;59.30;19.93;;;8.10;99.90;;;;;;5068165;28;20655;-76
2021/12/12 09:25:51;;;;;;;54.03;19.57;;;8.10;99.90;;;;;;5064167;28;20292;-76
2021/12/12 09:28:32;;;;;;;51.13;19.83;;;8.10;99.90;;;;;;5067857;28;20737;-76
2021/12/12 09:31:08;;;;;;;47.93;19.13;;;8.10;99.90;;;;;;5068203;28;20737;-77
2021/12/12 09:34:12;;;;;;;43.17;19.07;;;8.20;99.90;;;;;;5065141;28;20212;-76
2021/12/12 09:36:44;;;;;;;44.63;17.33;;;8.20;99.90;;;;;;5067799;28;20236;-75
2021/12/12 09:39:21;;;;;;;45.37;17.23;;;8.20;99.90;;;;;;5068664;28;20234;-76
2021/12/12 09:42:00;;;;;;;43.73;17.67;;;8.20;99.90;;;;;;5049219;28;20297;-75
2021/12/12 09:44:48;;;;;;;50.07;18.30;;;8.30;99.90;;;;;;5067944;28;20206;-77
2021/12/12 09:51:14;;;;;;;41.87;17.10;;;8.40;99.90;;;;;;5036615;28;20207;-78
2021/12/12 09:54:15;;;;;;;43.57;16.97;;;8.40;99.90;;;;;;5066414;28;20210;-76
2021/12/12 09:57:06;;;;;;;38.70;16.47;;;8.50;99.90;;;;;;5067205;28;20280;-76
2021/12/12 09:59:58;;;;;;;42.47;17.07;;;8.50;99.90;;;;;;5066534;28;20197;-77
2021/12/12 10:02:34;;;;;;;37.73;16.63;;;8.60;99.90;;;;;;5063133;28;20313;-75
2021/12/12 10:05:11;;;;;;;44.00;17.03;;;8.60;99.90;;;;;;5057578;28;20242;-77
2021/12/12 10:08:06;;;;;;;38.93;15.17;;;8.60;99.90;;;;;;5050565;28;20713;-77
2021/12/12 10:10:52;;;;;;;38.43;16.60;;;8.70;99.90;;;;;;5065395;28;20296;-77
2021/12/12 10:13:31;;;;;;;41.10;16.57;;;8.70;99.90;;;;;;5046680;28;20549;-77
2021/12/12 10:16:05;;;;;;;46.80;17.83;;;8.80;99.90;;;;;;5066506;28;20230;-77
2021/12/12 10:18:47;;;;;;;42.10;16.70;;;8.90;99.90;;;;;;5068338;28;20247;-76
2021/12/12 10:21:21;;;;;;;41.20;16.27;;;8.90;99.90;;;;;;5068353;28;20723;-76
2021/12/12 10:24:21;;;;;;;36.87;16.47;;;8.90;99.90;;;;;;5033968;28;20287;-76
2021/12/12 10:27:12;;;;;;;34.83;14.90;;;8.90;99.90;;;;;;5067357;28;20256;-77
2021/12/12 10:30:04;;;;;;;36.63;14.97;;;8.90;99.90;;;;;;5066217;28;20214;-77
2021/12/12 10:32:44;;;;;;;38.37;15.40;;;8.90;99.90;;;;;;5053735;28;20771;-77
2021/12/12 10:35:16;;;;;;;37.87;16.40;;;8.90;99.90;;;;;;5060413;28;20641;-76
2021/12/12 10:38:00;;;;;;;37.27;17.07;;;8.90;99.90;;;;;;5065996;28;20294;-77
2021/12/12 10:40:35;;;;;;;40.60;16.93;;;8.90;99.90;;;;;;5068337;28;20257;-76
2021/12/12 10:43:08;;;;;;;42.00;17.20;;;9.00;99.90;;;;;;5050731;28;20584;-75
2021/12/12 10:45:46;;;;;;;47.97;18.30;;;9.00;99.90;;;;;;5067201;28;20297;-76
2021/12/12 10:48:19;;;;;;;46.03;17.93;;;9.10;99.90;;;;;;5062076;28;20630;-76
2021/12/12 10:51:02;;;;;;;47.07;20.77;;;9.10;99.90;;;;;;5050477;28;20680;-76
2021/12/12 10:53:40;;;;;;;44.37;18.57;;;9.10;99.90;;;;;;5065189;28;20967;-77
2021/12/12 10:56:14;;;;;;;46.83;19.63;;;9.10;99.90;;;;;;5066271;28;20235;-79
2021/12/12 10:58:47;;;;;;;47.83;19.33;;;9.10;99.90;;;;;;5049320;28;20222;-77
2021/12/12 11:01:22;;;;;;;48.80;19.03;;;9.20;99.90;;;;;;5061895;28;20220;-76
2021/12/12 11:04:13;;;;;;;49.40;18.63;;;9.20;99.90;;;;;;5062775;28;20214;-77
2021/12/12 11:06:49;;;;;;;49.33;19.83;;;9.20;99.90;;;;;;5068026;28;20235;-77
2021/12/12 11:09:26;;;;;;;47.07;19.23;;;9.30;99.90;;;;;;5067350;28;20814;-76
2021/12/12 11:12:06;;;;;;;50.43;19.60;;;9.30;99.90;;;;;;5068482;28;20211;-76
2021/12/12 11:14:50;;;;;;;50.57;19.57;;;9.40;99.90;;;;;;5069311;28;20204;-77
2021/12/12 11:17:24;;;;;;;47.93;18.13;;;9.50;99.90;;;;;;5069622;28;20263;-77
2021/12/12 11:20:06;;;;;;;43.80;18.40;;;9.50;99.90;;;;;;5069704;28;20660;-77
2021/12/12 11:22:40;;;;;;;37.17;15.77;;;9.60;99.90;;;;;;5071385;28;20258;-78
2021/12/12 11:25:18;;;;;;;33.67;15.07;;;9.60;99.90;;;;;;5070237;28;20230;-77
2021/12/12 11:27:56;;;;;;;31.37;15.43;;;9.70;99.90;;;;;;5071194;28;20228;-78
2021/12/12 11:30:30;;;;;;;33.77;15.17;;;9.70;99.90;;;;;;5066401;28;20287;-75
2021/12/12 11:32:59;;;;;;;34.97;14.50;;;9.70;99.90;;;;;;5049154;28;20216;-77
2021/12/12 11:35:27;;;;;;;30.93;15.10;;;9.60;99.90;;;;;;5070959;28;20209;-77
2021/12/12 11:38:26;;;;;;;33.07;14.97;;;9.70;99.90;;;;;;5046480;28;20304;-77
2021/12/12 11:41:12;;;;;;;34.00;14.40;;;9.60;99.90;;;;;;5021999;28;20288;-77
2021/12/12 11:43:51;;;;;;;27.93;13.90;;;9.60;99.90;;;;;;5063816;28;20226;-77
2021/12/12 11:46:32;;;;;;;27.43;13.23;;;9.50;99.90;;;;;;5052181;28;20678;-79
2021/12/12 11:48:59;;;;;;;28.23;13.00;;;9.60;99.90;;;;;;5069803;28;20299;-78
2021/12/12 11:51:33;;;;;;;26.23;13.00;;;9.60;99.90;;;;;;5070877;28;20203;-79
2021/12/12 11:54:33;;;;;;;25.13;12.70;;;9.60;99.90;;;;;;5070910;28;20215;-77
2021/12/12 11:57:13;;;;;;;24.20;12.07;;;9.70;99.90;;;;;;5052919;28;20761;-78
2021/12/12 12:00:08;;;;;;;23.77;11.93;;;9.70;99.90;;;;;;5068428;28;20204;-77
2021/12/12 12:02:56;;;;;;;26.43;12.97;;;9.60;99.90;;;;;;5071118;28;20328;-78
2021/12/12 12:05:35;;;;;;;26.10;13.07;;;9.70;99.90;;;;;;5064198;28;20197;-77
2021/12/12 12:08:10;;;;;;;23.47;12.13;;;9.70;99.90;;;;;;5048468;28;20372;-78
2021/12/12 12:10:54;;;;;;;26.70;13.23;;;9.70;99.90;;;;;;5051111;28;20243;-77
2021/12/12 12:13:42;;;;;;;23.83;13.47;;;9.70;99.90;;;;;;5052476;28;20287;-78
2021/12/12 12:17:00;;;;;;;25.43;12.83;;;9.80;99.90;;;;;;5067885;28;20746;-79
2021/12/12 12:19:42;;;;;;;25.20;12.80;;;9.80;99.90;;;;;;5019098;28;20620;-78
2021/12/12 12:22:34;;;;;;;25.80;13.23;;;9.80;99.90;;;;;;5069051;28;20296;-78
2021/12/12 12:25:20;;;;;;;27.60;13.97;;;9.80;99.90;;;;;;5071136;28;20303;-79
2021/12/12 12:27:53;;;;;;;28.63;13.27;;;9.80;99.90;;;;;;5071495;28;20314;-77
2021/12/12 12:30:58;;;;;;;22.80;12.40;;;9.90;99.90;;;;;;5069074;28;20649;-77
2021/12/12 12:33:46;;;;;;;24.90;12.60;;;9.90;99.90;;;;;;5065267;28;20263;-78
2021/12/12 12:36:38;;;;;;;28.30;13.97;;;10.00;99.90;;;;;;5052670;28;20213;-78
2021/12/12 12:39:38;;;;;;;27.30;13.50;;;9.90;99.90;;;;;;5070434;28;20208;-77
2021/12/12 12:42:43;;;;;;;28.33;14.30;;;10.00;99.90;;;;;;5070163;28;20235;-78
2021/12/12 12:45:28;;;;;;;33.87;14.90;;;10.00;99.90;;;;;;5050404;28;20205;-78
2021/12/12 12:48:33;;;;;;;30.30;15.27;;;9.90;99.90;;;;;;5062608;28;20232;-78
2021/12/12 12:51:37;;;;;;;29.13;14.23;;;9.90;99.90;;;;;;5068749;28;20240;-78
2021/12/12 12:54:28;;;;;;;30.53;15.60;;;10.20;99.90;;;;;;5066862;28;20215;-80
2021/12/12 12:57:19;;;;;;;32.00;15.77;;;10.10;99.90;;;;;;5039307;28;20638;-78
2021/12/12 12:59:55;;;;;;;29.23;14.67;;;10.20;99.90;;;;;;5050521;28;20204;-79
2021/12/12 13:02:55;;;;;;;27.87;14.47;;;9.70;99.90;;;;;;5069709;28;20224;-77
2021/12/12 13:06:00;;;;;;;28.37;13.87;;;10.10;99.90;;;;;;5048388;28;20287;-79
2021/12/12 13:08:49;;;;;;;30.80;13.83;;;10.20;99.90;;;;;;5045692;28;20308;-77
2021/12/12 13:11:44;;;;;;;27.30;13.50;;;10.20;99.90;;;;;;5067625;28;20335;-78
2021/12/12 13:14:19;;;;;;;29.37;13.50;;;;;;;;;;5062633;28;20212;-79
2021/12/12 13:16:55;;;;;;;28.60;14.80;;;10.30;99.90;;;;;;5062027;28;20737;-77
2021/12/12 13:19:44;;;;;;;28.50;12.87;;;10.30;99.90;;;;;;5069955;28;20248;-76
2021/12/12 13:22:33;;;;;;;26.03;13.13;;;10.30;99.90;;;;;;5069643;28;20216;-73
2021/12/12 13:25:05;;;;;;;27.65;15.90;;;10.50;99.90;;;;;;5054029;28;20532;-78
2021/12/12 13:28:01;;;;;;;20.43;12.67;;;10.70;99.90;;;;;;5047333;28;20236;-78
2021/12/12 13:31:01;;;;;;;20.67;11.73;;;10.80;99.90;;;;;;5044837;28;20595;-75
2021/12/12 13:33:47;;;;;;;22.37;12.37;;;10.70;99.90;;;;;;5041191;28;20227;-76
2021/12/12 13:36:32;;;;;;;23.40;11.80;;;10.70;99.90;;;;;;5066260;28;20242;-78
2021/12/12 13:39:20;;;;;;;24.37;12.13;;;10.60;99.90;;;;;;5061198;28;20218;-84
2021/12/12 13:41:59;;;;;;;23.73;11.20;;;10.60;99.90;;;;;;5065739;28;20204;-73
2021/12/12 13:45:02;;;;;;;25.10;12.53;;;10.60;99.90;;;;;;5065216;28;20635;-82
2021/12/12 13:47:34;;;;;;;26.23;12.80;;;10.50;99.90;;;;;;5064668;28;20231;-79